createdAt,value
2019-04-23T00:01:16.454Z,99201.33
2019-04-23T00:03:34.438Z,99200.81
2019-04-23T00:06:15.178Z,99200.81
2019-04-23T00:11:17.464Z,99179.87
2019-04-23T00:14:05.992Z,99194.00
2019-04-23T00:16:42.524Z,99185.10
2019-04-23T00:19:10.308Z,99178.81
2019-04-23T00:21:55.003Z,99178.69
2019-04-23T00:25:39.393Z,99178.69
2019-04-23T00:27:35.797Z,99170.20
2019-04-23T00:30:01.027Z,99170.20
2019-04-23T00:35:05.882Z,99161.17
2019-04-23T00:37:54.907Z,99160.60
2019-04-23T00:40:19.847Z,99160.60
2019-04-23T00:42:53.327Z,99162.52
2019-04-23T00:45:32.726Z,99159.22
2019-04-23T00:48:01.991Z,99157.56
2019-04-23T00:50:52.820Z,99149.38
2019-04-23T00:53:17.408Z,99149.38
2019-04-23T00:55:47.646Z,99137.31
2019-04-23T00:58:22.074Z,99154.92
2019-04-23T01:00:45.944Z,99154.92
2019-04-23T01:03:17.480Z,99139.35
2019-04-23T01:05:50.254Z,99143.56
2019-04-23T01:08:20.204Z,99143.56
2019-04-23T01:10:59.903Z,99146.72
2019-04-23T01:13:36.299Z,99142.59
2019-04-23T01:15:54.005Z,99132.31
2019-04-23T01:18:38.157Z,99132.31
2019-04-23T01:20:53.705Z,99135.72
2019-04-23T01:23:37.659Z,99129.48
2019-04-23T01:26:21.428Z,99131.17
2019-04-23T01:28:57.400Z,99130.66
2019-04-23T01:31:28.543Z,99127.30
2019-04-23T01:33:55.534Z,99126.23
2019-04-23T01:36:28.032Z,99118.42
2019-04-23T01:39:01.052Z,99118.42
2019-04-23T01:41:28.990Z,99117.04
2019-04-23T01:43:51.720Z,99111.05
2019-04-23T01:46:29.201Z,99100.70
2019-04-23T01:48:58.214Z,99101.08
2019-04-23T01:51:33.925Z,99092.92
2019-04-23T01:53:58.749Z,99092.92
2019-04-23T01:56:30.853Z,99087.08
2019-04-23T02:01:31.699Z,99084.61
2019-04-23T02:04:06.139Z,99079.23
2019-04-23T02:06:33.165Z,99082.48
2019-04-23T02:10:04.442Z,99068.44
2019-04-23T02:11:34.241Z,99068.44
2019-04-23T02:14:05.115Z,99067.09
2019-04-23T02:19:03.096Z,99058.38
2019-04-23T02:21:41.353Z,99056.26
2019-04-23T02:24:03.673Z,99041.75
2019-04-23T02:26:36.970Z,99053.17
2019-04-23T02:34:21.697Z,99045.78
2019-04-23T02:39:11.596Z,99040.78
2019-04-23T02:41:54.425Z,99033.75
2019-04-23T02:46:51.729Z,99036.19
2019-04-23T02:49:27.056Z,99029.27
2019-04-23T02:51:51.060Z,99029.05
2019-04-23T02:54:38.031Z,99022.95
2019-04-23T02:59:51.396Z,99021.22
2019-04-23T03:01:57.539Z,99027.29
2019-04-23T03:04:26.838Z,99018.94
2019-04-23T03:06:55.978Z,99016.16
2019-04-23T03:09:27.811Z,99013.88
2019-04-23T03:16:58.412Z,99010.17
2019-04-23T03:22:09.657Z,99007.42
2019-04-23T03:25:07.145Z,99004.89
2019-04-23T03:27:34.131Z,99009.58
2019-04-23T03:30:12.191Z,99005.24
2019-04-23T03:37:42.445Z,99002.66
2019-04-23T03:42:42.747Z,99011.84
2019-04-23T03:45:27.877Z,99007.50
2019-04-23T03:47:37.499Z,99005.39
2019-04-23T03:50:15.522Z,99004.81
2019-04-23T03:55:11.876Z,98993.02
2019-04-23T04:00:15.728Z,98990.86
2019-04-23T04:02:54.841Z,98995.84
2019-04-23T04:05:10.716Z,99000.11
2019-04-23T04:07:53.503Z,98989.80
2019-04-23T04:10:11.538Z,98993.24
2019-04-23T04:15:18.355Z,98993.17
2019-04-23T04:17:35.874Z,98990.62
2019-04-23T04:20:19.887Z,98992.78
2019-04-23T04:22:50.048Z,98993.11
2019-04-23T04:25:21.260Z,98992.97
2019-04-23T04:27:54.125Z,98982.08
2019-04-23T04:30:19.210Z,98984.00
2019-04-23T04:32:54.549Z,98982.64
2019-04-23T04:35:22.379Z,98983.34
2019-04-23T04:40:23.705Z,98984.73
2019-04-23T04:42:48.974Z,98984.62
2019-04-23T04:45:25.540Z,98976.83
2019-04-23T04:47:44.768Z,98978.69
2019-04-23T04:57:58.613Z,98967.64
2019-04-23T05:00:27.523Z,98971.86
2019-04-23T05:03:03.650Z,98971.16
2019-04-23T05:07:48.096Z,98968.66
2019-04-23T05:13:09.002Z,98965.55
2019-04-23T05:15:28.258Z,98971.34
2019-04-23T05:18:20.629Z,98963.06
2019-04-23T05:20:28.193Z,98970.53
2019-04-23T05:23:09.204Z,98967.84
2019-04-23T05:25:24.283Z,98966.27
2019-04-23T05:28:03.109Z,98965.63
2019-04-23T05:30:31.723Z,98963.50
2019-04-23T05:38:10.292Z,98970.33
2019-04-23T05:40:37.469Z,98969.89
2019-04-23T05:42:58.720Z,98967.84
2019-04-23T05:45:31.522Z,98964.14
2019-04-23T05:48:06.757Z,98962.20
2019-04-23T05:50:54.078Z,98954.94
2019-04-23T05:53:01.329Z,98952.27
2019-04-23T05:55:29.749Z,98954.04
2019-04-23T05:58:03.699Z,98947.81
2019-04-23T06:00:32.405Z,98943.44
2019-04-23T06:03:08.108Z,98936.74
2019-04-23T06:05:42.995Z,98939.32
2019-04-23T06:08:07.901Z,98935.60
2019-04-23T06:10:34.060Z,98929.58
2019-04-23T06:13:06.308Z,98934.89
2019-04-23T06:15:36.951Z,98932.88
2019-04-23T06:18:08.117Z,98925.51
2019-04-23T06:20:45.052Z,98927.73
2019-04-23T06:23:18.155Z,98931.64
2019-04-23T06:28:09.367Z,98920.97
2019-04-23T06:30:48.967Z,98926.22
2019-04-23T06:33:14.559Z,98931.85
2019-04-23T06:35:41.293Z,98928.16
2019-04-23T06:40:41.893Z,98921.84
2019-04-23T06:45:45.714Z,98911.45
2019-04-23T06:50:51.118Z,98909.23
2019-04-23T06:53:14.472Z,98911.44
2019-04-23T06:55:51.116Z,98913.67
2019-04-23T06:58:25.749Z,98905.43
2019-04-23T07:00:48.841Z,98900.65
2019-04-23T07:03:25.050Z,98896.84
2019-04-23T07:08:56.281Z,98893.19
2019-04-23T07:11:18.847Z,98891.65
2019-04-23T07:13:50.810Z,98886.87
2019-04-23T07:16:22.860Z,98891.48
2019-04-23T07:18:40.925Z,98894.53
2019-04-23T07:21:15.340Z,98888.34
2019-04-23T07:23:44.823Z,98888.34
2019-04-23T07:26:26.053Z,98877.15
2019-04-23T07:28:51.399Z,98881.56
2019-04-23T07:33:52.784Z,98881.88
2019-04-23T07:36:19.372Z,98863.97
2019-04-23T07:42:03.295Z,98861.93
2019-04-23T07:44:58.072Z,98863.61
2019-04-23T07:47:42.242Z,98853.86
2019-04-23T07:50:26.093Z,98853.10
2019-04-23T07:52:51.545Z,98851.30
2019-04-23T07:55:21.996Z,98842.13
2019-04-23T07:57:49.378Z,98842.13
2019-04-23T08:00:20.991Z,98842.17
2019-04-23T08:02:44.071Z,98829.58
2019-04-23T08:07:49.747Z,98830.41
2019-04-23T08:10:15.261Z,98829.08
2019-04-23T08:12:48.035Z,98832.31
2019-04-23T08:15:23.651Z,98832.31
2019-04-23T08:17:43.487Z,98831.81
2019-04-23T08:20:21.272Z,98831.81
2019-04-23T08:22:48.055Z,98825.61
2019-04-23T08:25:35.094Z,98829.41
2019-04-23T08:28:07.990Z,98807.78
2019-04-23T08:30:32.242Z,98807.78
2019-04-23T08:33:03.946Z,98819.63
2019-04-23T08:35:37.762Z,98819.63
2019-04-23T08:38:21.153Z,98825.52
2019-04-23T08:40:54.131Z,98828.47
2019-04-23T08:45:59.572Z,98802.42
2019-04-23T08:48:32.811Z,98802.42
2019-04-23T08:51:09.605Z,98802.83
2019-04-23T08:56:03.655Z,98805.28
2019-04-23T08:58:30.142Z,98807.84
2019-04-23T09:01:05.148Z,98802.93
2019-04-23T09:06:06.337Z,98804.44
2019-04-23T09:11:19.950Z,98792.98
2019-04-23T09:16:05.265Z,98793.12
2019-04-23T09:18:33.502Z,98774.43
2019-04-23T09:21:12.762Z,98780.12
2019-04-23T09:23:45.129Z,98785.42
2019-04-23T09:26:03.942Z,98784.28
2019-04-23T09:31:55.154Z,98776.91
2019-04-23T09:34:08.053Z,98768.77
2019-04-23T09:37:00.015Z,98771.69
2019-04-23T09:42:09.239Z,98768.77
2019-04-23T09:47:41.416Z,98762.47
2019-04-23T09:50:13.999Z,98765.13
2019-04-23T09:52:41.162Z,98762.43
2019-04-23T09:55:16.011Z,98764.48
2019-04-23T09:57:33.853Z,98764.17
2019-04-23T10:00:12.607Z,98766.11
2019-04-23T10:02:27.373Z,98767.16
2019-04-23T10:04:55.547Z,98767.00
2019-04-23T10:07:26.437Z,98764.96
2019-04-23T10:09:40.711Z,98767.06
2019-04-23T10:12:09.554Z,98767.70
2019-04-23T10:14:38.774Z,98761.25
2019-04-23T10:17:08.422Z,98759.28
2019-04-23T10:19:37.090Z,98749.66
2019-04-23T10:22:07.134Z,98755.72
2019-04-23T10:24:37.003Z,98744.42
2019-04-23T10:27:06.110Z,98746.72
2019-04-23T10:29:38.358Z,98743.69
2019-04-23T10:32:07.576Z,98738.61
2019-04-23T10:34:47.073Z,98735.77
2019-04-23T10:37:07.285Z,98735.03
2019-04-23T10:39:40.808Z,98734.14
2019-04-23T10:42:07.933Z,98743.50
2019-04-23T10:44:44.360Z,98721.06
2019-04-23T10:48:07.477Z,98729.01
2019-04-23T10:53:27.737Z,98730.61
2019-04-23T10:55:51.091Z,98731.64
2019-04-23T10:58:16.867Z,98729.30
2019-04-23T11:00:44.951Z,98721.95
2019-04-23T11:03:37.326Z,98718.88
2019-04-23T11:05:50.345Z,98723.48
2019-04-23T11:08:11.886Z,98723.99
2019-04-23T11:10:46.742Z,98724.48
2019-04-23T11:13:25.781Z,98722.45
2019-04-23T11:16:08.954Z,98721.17
2019-04-23T11:18:31.247Z,98716.68
2019-04-23T11:21:07.416Z,98718.93
2019-04-23T11:23:23.639Z,98721.00
2019-04-23T11:25:48.499Z,98708.25
2019-04-23T11:28:26.061Z,98714.88
2019-04-23T11:30:57.265Z,98711.52
2019-04-23T11:33:35.672Z,98715.73
2019-04-23T11:36:35.525Z,98715.36
2019-04-23T11:38:50.766Z,98719.09
2019-04-23T11:41:00.566Z,98718.54
2019-04-23T11:48:52.327Z,98718.79
2019-04-23T11:56:13.981Z,98712.29
2019-04-23T11:58:35.707Z,98713.48
2019-04-23T12:01:40.886Z,98707.04
2019-04-23T12:04:05.124Z,98704.67
2019-04-23T12:06:32.930Z,98704.16
2019-04-23T12:09:09.337Z,98705.13
2019-04-23T12:22:15.570Z,98686.85
2019-04-23T12:32:43.282Z,98697.27
2019-04-23T12:35:01.348Z,98691.06
2019-04-23T12:45:29.048Z,98695.00
2019-04-23T12:47:58.267Z,98693.50
2019-04-23T12:53:05.714Z,98692.63
2019-04-23T12:55:24.721Z,98692.45
2019-04-23T12:58:05.887Z,98689.80
2019-04-23T13:00:22.490Z,98684.11
2019-04-23T13:02:52.398Z,98686.52
2019-04-23T13:05:21.418Z,98671.50
2019-04-23T13:07:54.002Z,98681.20
2019-04-23T13:10:38.765Z,98676.55
2019-04-23T13:15:22.596Z,98682.16
2019-04-23T13:20:23.480Z,98673.19
2019-04-23T13:25:48.075Z,98667.31
2019-04-23T13:30:54.258Z,98665.22
2019-04-23T13:36:03.278Z,98663.53
2019-04-23T13:38:27.201Z,98657.09
2019-04-23T13:40:59.780Z,98650.08
2019-04-23T13:43:29.637Z,98650.06
2019-04-23T13:48:18.338Z,98648.45
2019-04-23T13:51:01.688Z,98650.77
2019-04-23T13:53:40.801Z,98651.77
2019-04-23T13:56:04.039Z,98651.41
2019-04-23T13:58:43.321Z,98637.52
2019-04-23T14:01:28.840Z,98642.56
2019-04-23T14:04:04.095Z,98640.02
2019-04-23T14:06:37.207Z,98650.61
2019-04-23T14:09:14.628Z,98647.25
2019-04-23T14:11:40.483Z,98647.25
2019-04-23T14:14:34.462Z,98639.64
2019-04-23T14:17:16.588Z,98640.59
2019-04-23T14:19:21.450Z,98643.45
2019-04-23T14:21:51.702Z,98634.33
2019-04-23T14:24:45.219Z,98629.63
2019-04-23T14:27:09.410Z,98634.80
2019-04-23T14:32:22.532Z,98633.58
2019-04-23T14:35:04.650Z,98637.41
2019-04-23T14:38:01.672Z,98625.52
2019-04-23T14:40:26.389Z,98621.27
2019-04-23T14:43:06.630Z,98625.08
2019-04-23T14:48:11.888Z,98623.10
2019-04-23T14:55:56.934Z,98624.47
2019-04-23T15:01:13.663Z,98621.67
2019-04-23T15:04:19.144Z,98626.10
2019-04-23T15:06:54.835Z,98627.72
2019-04-23T15:12:02.158Z,98626.52
2019-04-23T15:17:03.236Z,98621.45
2019-04-23T15:19:47.919Z,98629.58
2019-04-23T15:25:05.309Z,98622.83
2019-04-23T15:27:15.786Z,98628.77
2019-04-23T15:29:48.265Z,98620.08
2019-04-23T15:32:34.518Z,98620.67
2019-04-23T15:35:05.261Z,98623.75
2019-04-23T15:37:45.144Z,98616.52
2019-04-23T15:40:01.841Z,98624.78
2019-04-23T15:45:01.321Z,98623.63
2019-04-23T15:47:32.713Z,98619.81
2019-04-23T15:52:39.597Z,98618.52
2019-04-23T15:55:01.636Z,98619.62
2019-04-23T15:58:05.482Z,98619.62
2019-04-23T15:59:58.878Z,98617.09
2019-04-23T16:02:04.113Z,98611.75
2019-04-23T16:04:33.756Z,98615.95
2019-04-23T16:07:02.559Z,98612.52
2019-04-23T16:10:04.373Z,98616.92
2019-04-23T16:12:25.351Z,98614.05
2019-04-23T16:15:03.015Z,98615.87
2019-04-23T16:20:14.783Z,98613.94
2019-04-23T16:22:38.266Z,98615.87
2019-04-23T16:25:17.305Z,98612.91
2019-04-23T16:27:36.570Z,98609.62
2019-04-23T16:30:17.375Z,98612.79
2019-04-23T16:32:57.766Z,98614.80
2019-04-23T16:38:10.355Z,98614.02
2019-04-23T16:40:36.260Z,98618.89
2019-04-23T16:43:07.077Z,98621.36
2019-04-23T16:45:31.611Z,98620.77
2019-04-23T16:48:07.453Z,98622.83
2019-04-23T16:53:07.284Z,98613.13
2019-04-23T16:55:29.405Z,98616.63
2019-04-23T16:58:01.574Z,98612.84
2019-04-23T17:00:30.552Z,98612.22
2019-04-23T17:03:16.014Z,98614.42
2019-04-23T17:05:39.585Z,98616.44
2019-04-23T17:08:32.610Z,98618.77
2019-04-23T17:10:36.675Z,98606.90
2019-04-23T17:13:17.566Z,98616.53
2019-04-23T17:15:46.368Z,98608.77
2019-04-23T17:18:11.504Z,98612.99
2019-04-23T17:23:16.919Z,98608.20
2019-04-23T17:25:41.906Z,98615.73
2019-04-23T17:28:20.145Z,98610.51
2019-04-23T17:30:52.369Z,98613.78
2019-04-23T17:36:18.517Z,98611.81
2019-04-23T17:38:49.429Z,98610.23
2019-04-23T17:41:44.004Z,98610.72
2019-04-23T17:46:39.114Z,98614.31
2019-04-23T17:49:04.533Z,98614.47
2019-04-23T17:51:37.759Z,98613.55
2019-04-23T17:54:22.525Z,98618.08
2019-04-23T17:56:59.990Z,98613.63
2019-04-23T17:59:25.366Z,98617.86
2019-04-23T18:02:16.447Z,98615.09
2019-04-23T18:04:38.724Z,98621.17
2019-04-23T18:07:06.189Z,98621.34
2019-04-23T18:09:48.807Z,98624.12
2019-04-23T18:12:25.422Z,98617.98
2019-04-23T18:14:50.875Z,98618.41
2019-04-23T18:17:26.721Z,98628.67
2019-04-23T18:20:19.355Z,98626.46
2019-04-23T18:25:37.466Z,98637.45
2019-04-23T18:28:01.786Z,98638.20
2019-04-23T18:31:06.068Z,98636.71
2019-04-23T18:36:25.493Z,98639.43
2019-04-23T18:39:22.263Z,98637.48
2019-04-23T18:42:02.266Z,98640.91
2019-04-23T18:44:36.505Z,98644.38
2019-04-23T18:47:07.626Z,98650.48
2019-04-23T18:52:48.451Z,98645.95
2019-04-23T18:55:35.005Z,98651.58
2019-04-23T18:57:57.291Z,98655.77
2019-04-23T19:00:53.632Z,98656.08
2019-04-23T19:03:57.480Z,98658.14
2019-04-23T19:06:32.612Z,98664.76
2019-04-23T19:14:47.966Z,98663.43
2019-04-23T19:19:48.380Z,98669.87
2019-04-23T19:22:27.335Z,98676.21
2019-04-23T19:24:53.454Z,98678.66
2019-04-23T19:27:47.295Z,98681.25
2019-04-23T19:30:09.342Z,98679.90
2019-04-23T19:33:32.335Z,98683.00
2019-04-23T19:36:28.187Z,98681.52
2019-04-23T19:38:56.065Z,98689.46
2019-04-23T19:41:47.533Z,98694.67
2019-04-23T19:44:01.232Z,98694.59
2019-04-23T19:46:50.575Z,98694.92
2019-04-23T19:49:13.268Z,98698.78
2019-04-23T19:51:53.636Z,98700.51
2019-04-23T20:02:33.867Z,98700.08
2019-04-23T20:04:46.092Z,98703.83
2019-04-23T20:07:22.674Z,98706.23
2019-04-23T20:09:55.187Z,98701.10
2019-04-23T20:12:36.900Z,98706.83
2019-04-23T20:15:00.192Z,98711.88
2019-04-23T20:20:04.406Z,98711.06
2019-04-23T20:22:51.183Z,98708.98
2019-04-23T20:25:56.960Z,98712.52
2019-04-23T20:28:41.091Z,98713.39
2019-04-23T20:31:16.207Z,98719.14
2019-04-23T20:36:59.514Z,98720.19
2019-04-23T20:42:27.249Z,98715.59
2019-04-23T20:45:04.830Z,98716.62
2019-04-23T20:48:01.943Z,98720.47
2019-04-23T20:50:27.743Z,98719.22
2019-04-23T20:52:51.515Z,98719.53
2019-04-23T20:55:48.092Z,98719.25
2019-04-23T20:58:20.902Z,98714.14
2019-04-23T21:01:13.285Z,98714.14
2019-04-23T21:12:04.888Z,98727.66
2019-04-23T21:14:48.495Z,98724.94
2019-04-23T21:17:07.370Z,98721.72
2019-04-23T21:20:01.535Z,98729.30
2019-04-23T21:22:17.378Z,98724.99
2019-04-23T21:24:54.665Z,98721.23
2019-04-23T21:27:55.330Z,98729.85
2019-04-23T21:34:06.049Z,98729.83
2019-04-23T21:36:57.551Z,98730.11
2019-04-23T21:40:04.774Z,98721.50
2019-04-23T21:42:32.712Z,98719.63
2019-04-23T21:45:02.571Z,98719.63
2019-04-23T21:50:12.307Z,98733.89
2019-04-23T21:52:51.045Z,98723.41
2019-04-23T21:55:15.633Z,98723.41
2019-04-23T21:57:53.822Z,98727.16
2019-04-23T22:00:19.124Z,98731.20
2019-04-23T22:03:18.114Z,98729.05
2019-04-23T22:05:49.653Z,98734.70
2019-04-23T22:08:43.820Z,98734.70
2019-04-23T22:14:34.095Z,98744.95
2019-04-23T22:17:25.922Z,98744.95
2019-04-23T22:20:06.080Z,98742.27
2019-04-23T22:22:44.191Z,98743.86
2019-04-23T22:25:11.015Z,98747.91
2019-04-23T22:27:52.920Z,98747.91
2019-04-23T22:30:25.849Z,98743.87
2019-04-23T22:35:35.103Z,98753.30
2019-04-23T22:40:34.489Z,98751.95
2019-04-23T22:48:46.135Z,98756.00
2019-04-23T22:51:21.391Z,98754.65
2019-04-23T22:56:51.822Z,98752.73
2019-04-23T23:02:07.785Z,98763.25
2019-04-23T23:04:54.549Z,98771.09
2019-04-23T23:07:19.742Z,98771.12
2019-04-23T23:12:31.768Z,98788.11
2019-04-23T23:15:05.245Z,98782.71
2019-04-23T23:17:41.988Z,98782.71
2019-04-23T23:20:14.017Z,98780.00
2019-04-23T23:23:06.474Z,98780.00
2019-04-23T23:25:23.371Z,98781.09
2019-04-23T23:28:05.968Z,98779.22
2019-04-23T23:30:33.765Z,98784.06
2019-04-23T23:33:13.329Z,98777.31
2019-04-23T23:35:44.504Z,98774.07
2019-04-23T23:38:24.062Z,98767.31
2019-04-23T23:41:14.143Z,98767.31
2019-04-23T23:43:54.993Z,98779.48
2019-04-23T23:48:51.318Z,98771.12
2019-04-23T23:54:13.329Z,98771.38
2019-04-23T23:56:40.089Z,98771.38
2019-04-23T23:59:10.409Z,98758.11
